createdAt,value
2023-03-05T00:00:23.781Z,9.50
2023-03-05T00:02:27.689Z,9.00
2023-03-05T00:04:33.062Z,9.23
2023-03-05T00:06:36.911Z,10.63
2023-03-05T00:08:41.211Z,10.18
2023-03-05T00:10:44.846Z,9.25
2023-03-05T00:12:48.679Z,8.63
2023-03-05T00:14:53.271Z,8.95
2023-03-05T00:16:56.845Z,8.77
2023-03-05T00:19:02.359Z,9.20
2023-03-05T00:21:18.713Z,9.43
2023-03-05T00:23:22.390Z,8.68
2023-03-05T00:25:26.063Z,8.55
2023-03-05T00:27:29.818Z,8.35
2023-03-05T00:29:34.927Z,8.15
2023-03-05T00:31:39.402Z,8.95
2023-03-05T00:33:43.982Z,8.10
2023-03-05T00:35:48.529Z,8.93
2023-03-05T00:37:54.095Z,8.32
2023-03-05T00:39:57.548Z,8.20
2023-03-05T00:42:01.183Z,9.10
2023-03-05T00:44:05.222Z,8.40
2023-03-05T00:46:08.797Z,8.55
2023-03-05T00:48:12.357Z,8.20
2023-03-05T00:50:15.628Z,8.35
2023-03-05T00:52:19.063Z,7.57
2023-03-05T00:54:23.713Z,8.07
2023-03-05T00:56:28.113Z,8.43
2023-03-05T00:58:31.448Z,7.82
2023-03-05T01:00:34.823Z,8.23
2023-03-05T01:02:38.332Z,8.88
2023-03-05T01:04:41.724Z,8.20
2023-03-05T01:06:46.380Z,8.65
2023-03-05T01:08:50.535Z,9.02
2023-03-05T01:10:55.482Z,8.48
2023-03-05T01:12:58.913Z,8.40
2023-03-05T01:15:02.208Z,8.50
2023-03-05T01:17:05.845Z,8.30
2023-03-05T01:19:09.585Z,8.68
2023-03-05T01:21:12.903Z,9.32
2023-03-05T01:23:16.958Z,8.07
2023-03-05T01:25:21.346Z,8.52
2023-03-05T01:27:25.990Z,8.65
2023-03-05T01:29:29.415Z,8.25
2023-03-05T01:31:32.896Z,7.82
2023-03-05T01:33:36.565Z,7.85
2023-03-05T01:35:40.060Z,7.25
2023-03-05T01:37:43.685Z,8.90
2023-03-05T01:39:47.052Z,7.63
2023-03-05T01:41:50.381Z,7.10
2023-03-05T01:43:55.175Z,7.20
2023-03-05T01:46:24.044Z,7.47
2023-03-05T01:48:27.724Z,7.70
2023-03-05T01:50:31.145Z,7.80
2023-03-05T01:52:37.905Z,7.88
2023-03-05T01:54:46.110Z,8.32
2023-03-05T01:56:51.593Z,7.20
2023-03-05T01:59:03.648Z,7.72
2023-03-05T02:01:07.428Z,7.50
2023-03-05T02:03:13.798Z,8.10
2023-03-05T02:05:20.752Z,7.68
2023-03-05T02:07:24.840Z,7.30
2023-03-05T02:09:29.655Z,8.13
2023-03-05T02:11:34.098Z,8.15
2023-03-05T02:13:40.915Z,8.20
2023-03-05T02:15:47.414Z,8.45
2023-03-05T02:17:51.101Z,7.95
2023-03-05T02:19:55.865Z,7.60
2023-03-05T02:22:00.747Z,6.93
2023-03-05T02:24:04.021Z,7.60
2023-03-05T02:26:10.306Z,7.22
2023-03-05T02:28:17.702Z,10.15
2023-03-05T02:30:21.646Z,7.70
2023-03-05T02:32:25.252Z,7.80
2023-03-05T02:34:28.758Z,8.02
2023-03-05T02:36:32.369Z,8.02
2023-03-05T02:38:37.369Z,7.65
2023-03-05T02:42:45.106Z,8.25
2023-03-05T02:44:49.710Z,6.82
2023-03-05T02:46:53.145Z,6.78
2023-03-05T02:48:56.530Z,7.00
2023-03-05T02:51:01.174Z,7.85
2023-03-05T02:53:04.672Z,7.32
2023-03-05T02:55:10.401Z,6.93
2023-03-05T02:57:15.015Z,7.68
2023-03-05T02:59:18.265Z,6.70
2023-03-05T03:01:21.598Z,8.02
2023-03-05T03:03:25.252Z,8.65
2023-03-05T03:05:28.587Z,8.20
2023-03-05T03:07:31.982Z,8.55
2023-03-05T03:09:35.673Z,7.72
2023-03-05T03:11:40.349Z,7.30
2023-03-05T03:13:43.612Z,7.95
2023-03-05T03:15:47.339Z,8.32
2023-03-05T03:17:50.754Z,8.90
2023-03-05T03:19:54.067Z,8.18
2023-03-05T03:21:57.406Z,8.75
2023-03-05T03:24:00.669Z,7.22
2023-03-05T03:26:03.978Z,8.75
2023-03-05T03:28:08.864Z,7.82
2023-03-05T03:30:13.423Z,7.80
2023-03-05T03:32:16.811Z,9.27
2023-03-05T03:34:20.741Z,7.43
2023-03-05T03:36:24.048Z,8.68
2023-03-05T03:38:27.468Z,7.95
2023-03-05T03:40:31.375Z,7.70
2023-03-05T03:42:34.708Z,7.43
2023-03-05T03:44:39.422Z,7.65
2023-03-05T03:46:44.481Z,7.78
2023-03-05T03:48:51.737Z,8.40
2023-03-05T03:50:55.082Z,8.35
2023-03-05T03:52:58.402Z,8.10
2023-03-05T03:55:02.507Z,7.40
2023-03-05T03:57:06.074Z,7.65
2023-03-05T03:59:10.095Z,7.53
2023-03-05T04:01:14.913Z,7.95
2023-03-05T04:03:18.175Z,8.40
2023-03-05T04:05:21.496Z,8.07
2023-03-05T04:07:24.865Z,7.85
2023-03-05T04:09:28.180Z,7.70
2023-03-05T04:11:31.574Z,8.80
2023-03-05T04:13:34.913Z,8.07
2023-03-05T04:15:38.264Z,8.70
2023-03-05T04:17:43.043Z,9.07
2023-03-05T04:19:46.831Z,7.57
2023-03-05T04:21:50.082Z,7.38
2023-03-05T04:23:53.408Z,7.90
2023-03-05T04:25:56.844Z,8.35
2023-03-05T04:28:00.116Z,8.35
2023-03-05T04:30:03.559Z,7.72
2023-03-05T04:32:07.314Z,8.25
2023-03-05T04:34:12.151Z,7.60
2023-03-05T04:36:15.430Z,8.35
2023-03-05T04:38:19.221Z,7.57
2023-03-05T04:40:22.813Z,7.90
2023-03-05T04:42:26.298Z,8.63
2023-03-05T04:44:29.857Z,7.80
2023-03-05T04:46:33.391Z,7.82
2023-03-05T04:48:36.856Z,8.00
2023-03-05T04:50:41.777Z,6.85
2023-03-05T04:52:46.504Z,7.03
2023-03-05T04:54:49.846Z,7.65
2023-03-05T04:56:53.885Z,8.43
2023-03-05T04:58:57.303Z,7.40
2023-03-05T05:01:03.642Z,7.72
2023-03-05T05:03:07.068Z,8.00
2023-03-05T05:05:11.974Z,8.18
2023-03-05T05:07:16.784Z,8.05
2023-03-05T05:09:20.073Z,8.07
2023-03-05T05:11:23.281Z,8.18
2023-03-05T05:13:26.838Z,8.52
2023-03-05T05:15:30.136Z,7.13
2023-03-05T05:17:34.259Z,8.85
2023-03-05T05:19:37.870Z,8.20
2023-03-05T05:21:41.338Z,9.27
2023-03-05T05:23:46.239Z,8.85
2023-03-05T05:25:57.907Z,8.73
2023-03-05T05:28:01.155Z,8.13
2023-03-05T05:30:04.930Z,9.50
2023-03-05T05:32:08.904Z,8.05
2023-03-05T05:34:12.257Z,7.53
2023-03-05T05:36:19.344Z,8.02
2023-03-05T05:38:22.624Z,7.55
2023-03-05T05:40:27.292Z,7.68
2023-03-05T05:42:30.752Z,8.57
2023-03-05T05:44:35.029Z,7.93
2023-03-05T05:46:38.491Z,7.25
2023-03-05T05:48:41.932Z,7.53
2023-03-05T05:50:45.198Z,7.72
2023-03-05T05:52:48.611Z,7.80
2023-03-05T05:54:51.984Z,7.15
2023-03-05T05:56:56.691Z,8.43
2023-03-05T05:59:00.031Z,7.90
2023-03-05T06:01:04.227Z,6.78
2023-03-05T06:03:08.008Z,7.20
2023-03-05T06:05:14.894Z,7.32
2023-03-05T06:07:18.247Z,7.40
2023-03-05T06:09:21.754Z,7.30
2023-03-05T06:11:25.243Z,6.63
2023-03-05T06:13:29.865Z,7.32
2023-03-05T06:15:33.425Z,7.85
2023-03-05T06:17:36.962Z,7.47
2023-03-05T06:19:40.202Z,7.80
2023-03-05T06:21:43.642Z,7.32
2023-03-05T06:23:48.341Z,6.90
2023-03-05T06:25:51.924Z,6.95
2023-03-05T06:27:55.173Z,7.45
2023-03-05T06:30:00.373Z,7.05
2023-03-05T06:32:03.640Z,7.07
2023-03-05T06:34:06.888Z,7.55
2023-03-05T06:36:11.986Z,7.25
2023-03-05T06:38:15.274Z,7.63
2023-03-05T06:40:18.651Z,7.50
2023-03-05T06:42:22.671Z,7.50
2023-03-05T06:44:26.094Z,7.68
2023-03-05T06:46:32.332Z,7.75
2023-03-05T06:48:36.316Z,7.30
2023-03-05T06:50:39.782Z,7.38
2023-03-05T06:52:43.557Z,7.18
2023-03-05T06:54:46.751Z,7.40
2023-03-05T06:56:50.109Z,7.43
2023-03-05T06:58:53.788Z,6.50
2023-03-05T07:00:57.347Z,7.22
2023-03-05T07:03:02.125Z,7.00
2023-03-05T07:05:06.179Z,7.10
2023-03-05T07:07:09.560Z,7.22
2023-03-05T07:09:15.888Z,8.13
2023-03-05T07:11:21.420Z,6.72
2023-03-05T07:13:24.721Z,6.38
2023-03-05T07:15:28.093Z,7.88
2023-03-05T07:17:31.333Z,7.07
2023-03-05T07:19:36.034Z,7.00
2023-03-05T07:21:40.047Z,7.38
2023-03-05T07:23:43.536Z,7.40
2023-03-05T07:25:46.846Z,7.28
2023-03-05T07:27:50.221Z,6.68
2023-03-05T07:29:53.438Z,6.65
2023-03-05T07:31:56.958Z,6.57
2023-03-05T07:34:02.755Z,6.40
2023-03-05T07:36:09.255Z,6.78
2023-03-05T07:38:12.509Z,6.13
2023-03-05T07:40:15.849Z,6.68
2023-03-05T07:42:19.107Z,6.03
2023-03-05T07:44:32.960Z,6.50
2023-03-05T07:46:37.343Z,6.78
2023-03-05T07:48:40.694Z,7.22
2023-03-05T07:50:44.088Z,5.88
2023-03-05T07:52:48.853Z,6.00
2023-03-05T07:54:52.159Z,6.43
2023-03-05T07:56:56.429Z,6.22
2023-03-05T07:59:00.050Z,6.13
2023-03-05T08:01:03.612Z,6.85
2023-03-05T08:03:08.012Z,5.43
2023-03-05T08:05:11.540Z,6.72
2023-03-05T08:07:16.061Z,6.60
2023-03-05T08:09:21.135Z,6.43
2023-03-05T08:11:24.679Z,6.47
2023-03-05T08:13:27.976Z,7.25
2023-03-05T08:15:31.979Z,6.72
2023-03-05T08:17:35.986Z,6.50
2023-03-05T08:19:39.994Z,6.40
2023-03-05T08:21:44.192Z,7.28
2023-03-05T08:23:49.075Z,6.65
2023-03-05T08:25:55.170Z,6.20
2023-03-05T08:28:00.523Z,6.22
2023-03-05T08:30:05.092Z,6.60
2023-03-05T08:32:08.968Z,6.35
2023-03-05T08:34:12.880Z,6.40
2023-03-05T08:36:20.022Z,6.72
2023-03-05T08:38:24.469Z,6.40
2023-03-05T08:40:28.428Z,5.72
2023-03-05T08:42:34.294Z,5.93
2023-03-05T08:44:38.637Z,6.07
2023-03-05T08:46:42.946Z,6.43
2023-03-05T08:48:47.166Z,5.90
2023-03-05T08:50:51.296Z,6.13
2023-03-05T08:52:57.065Z,6.45
2023-03-05T08:55:01.098Z,5.70
2023-03-05T08:57:06.258Z,6.13
2023-03-05T08:59:13.593Z,5.97
2023-03-05T09:01:17.635Z,5.78
2023-03-05T09:03:22.544Z,6.28
2023-03-05T09:05:26.900Z,6.15
2023-03-05T09:07:31.115Z,6.90
2023-03-05T09:09:35.427Z,7.15
2023-03-05T09:11:39.689Z,6.45
2023-03-05T09:13:44.151Z,7.22
2023-03-05T09:15:56.124Z,6.53
2023-03-05T09:18:01.709Z,6.53
2023-03-05T09:20:09.453Z,6.35
2023-03-05T09:22:14.903Z,7.80
2023-03-05T09:24:19.963Z,6.97
2023-03-05T09:26:24.646Z,7.22
2023-03-05T09:28:29.699Z,6.47
2023-03-05T09:30:35.833Z,5.78
2023-03-05T09:32:41.776Z,6.82
2023-03-05T09:34:45.944Z,6.38
2023-03-05T09:36:50.895Z,7.03
2023-03-05T09:41:07.642Z,6.75
2023-03-05T09:43:23.955Z,5.88
2023-03-05T09:45:30.590Z,5.43
2023-03-05T09:47:53.304Z,7.22
2023-03-05T09:50:04.204Z,6.22
2023-03-05T09:52:17.808Z,5.95
2023-03-05T09:54:27.449Z,6.57
2023-03-05T09:56:37.601Z,5.93
2023-03-05T09:58:44.697Z,6.22
2023-03-05T10:00:51.558Z,8.13
2023-03-05T10:03:03.024Z,5.72
2023-03-05T10:07:23.252Z,5.28
2023-03-05T10:09:43.230Z,5.35
2023-03-05T10:11:55.249Z,5.60
2023-03-05T10:13:59.834Z,5.50
2023-03-05T10:16:17.574Z,5.50
2023-03-05T10:20:51.825Z,4.70
2023-03-05T10:23:17.647Z,6.75
2023-03-05T10:25:27.383Z,5.47
2023-03-05T10:27:43.502Z,5.32
2023-03-05T10:30:03.905Z,5.25
2023-03-05T10:32:20.867Z,5.10
2023-03-05T10:34:44.838Z,6.30
2023-03-05T10:37:11.935Z,5.18
2023-03-05T10:39:44.424Z,4.80
2023-03-05T10:42:03.049Z,5.03
2023-03-05T10:44:16.883Z,4.82
2023-03-05T10:46:24.302Z,5.22
2023-03-05T10:48:35.997Z,4.78
2023-03-05T10:50:46.221Z,5.00
2023-03-05T10:52:57.535Z,5.00
2023-03-05T10:55:01.748Z,4.68
2023-03-05T10:57:18.702Z,4.75
2023-03-05T10:59:23.464Z,4.78
2023-03-05T11:01:29.485Z,4.60
2023-03-05T11:03:51.067Z,5.22
2023-03-05T11:06:03.391Z,4.70
2023-03-05T11:08:26.106Z,5.57
2023-03-05T11:10:30.353Z,5.13
2023-03-05T11:12:36.002Z,6.30
2023-03-05T11:14:42.138Z,5.28
2023-03-05T11:16:49.493Z,5.32
2023-03-05T11:19:19.508Z,5.30
2023-03-05T11:21:28.163Z,5.30
2023-03-05T11:23:32.058Z,6.13
2023-03-05T11:25:48.255Z,6.60
2023-03-05T11:27:56.376Z,5.68
2023-03-05T11:30:01.114Z,6.15
2023-03-05T11:32:22.494Z,5.30
2023-03-05T11:34:35.779Z,5.43
2023-03-05T11:36:43.112Z,6.30
2023-03-05T11:38:52.280Z,6.00
2023-03-05T11:40:58.913Z,6.00
2023-03-05T11:43:03.530Z,5.65
2023-03-05T11:45:16.435Z,6.47
2023-03-05T11:47:32.086Z,6.80
2023-03-05T11:49:43.409Z,6.38
2023-03-05T11:54:07.520Z,6.32
2023-03-05T11:56:20.464Z,6.10
2023-03-05T11:58:32.850Z,5.38
2023-03-05T12:00:43.484Z,6.05
2023-03-05T12:02:56.476Z,6.43
2023-03-05T12:05:03.938Z,6.03
2023-03-05T12:07:15.199Z,6.30
2023-03-05T12:09:25.486Z,6.05
2023-03-05T12:11:31.767Z,7.10
2023-03-05T12:13:41.689Z,6.10
2023-03-05T12:16:16.803Z,6.20
2023-03-05T12:18:30.905Z,6.25
2023-03-05T12:20:44.385Z,6.43
2023-03-05T12:22:49.977Z,5.70
2023-03-05T12:24:54.347Z,6.68
2023-03-05T12:27:09.931Z,7.68
2023-03-05T12:29:31.112Z,7.35
2023-03-05T12:31:39.804Z,7.15
2023-03-05T12:33:44.464Z,6.07
2023-03-05T12:35:49.535Z,5.80
2023-03-05T12:38:25.633Z,6.80
2023-03-05T12:40:31.077Z,5.57
2023-03-05T12:42:55.483Z,4.90
2023-03-05T12:45:31.007Z,5.60
2023-03-05T12:47:35.430Z,6.40
2023-03-05T12:49:40.985Z,6.68
2023-03-05T12:51:45.106Z,5.85
2023-03-05T12:53:52.597Z,5.25
2023-03-05T12:56:04.190Z,5.07
2023-03-05T12:58:16.052Z,5.80
2023-03-05T13:00:26.828Z,4.80
2023-03-05T13:02:35.873Z,6.13
2023-03-05T13:04:46.936Z,5.25
2023-03-05T13:07:00.207Z,5.38
2023-03-05T13:09:09.434Z,5.95
2023-03-05T13:11:20.137Z,5.95
2023-03-05T13:13:25.799Z,5.85
2023-03-05T13:15:30.457Z,5.63
2023-03-05T13:17:39.407Z,4.93
2023-03-05T13:19:43.557Z,5.05
2023-03-05T13:21:47.298Z,4.88
2023-03-05T13:23:58.106Z,4.82
2023-03-05T13:26:11.113Z,6.05
2023-03-05T13:28:16.580Z,4.43
2023-03-05T13:30:25.915Z,4.35
2023-03-05T13:32:32.565Z,4.63
2023-03-05T13:34:47.100Z,4.18
2023-03-05T13:36:57.788Z,3.78
2023-03-05T13:39:04.215Z,4.15
2023-03-05T13:41:21.583Z,4.05
2023-03-05T13:43:25.253Z,4.20
2023-03-05T13:45:31.378Z,3.78
2023-03-05T13:47:37.167Z,3.83
2023-03-05T13:49:40.691Z,3.42
2023-03-05T13:51:45.048Z,3.92
2023-03-05T13:53:49.208Z,4.28
2023-03-05T13:55:54.750Z,3.40
2023-03-05T13:57:59.800Z,3.90
2023-03-05T14:00:03.869Z,3.45
2023-03-05T14:04:23.544Z,2.78
2023-03-05T14:06:31.149Z,2.65
2023-03-05T14:08:35.118Z,3.45
2023-03-05T14:10:40.616Z,2.92
2023-03-05T14:12:45.531Z,2.15
2023-03-05T14:14:51.338Z,2.08
2023-03-05T14:16:55.034Z,2.33
2023-03-05T14:19:01.324Z,2.45
2023-03-05T14:21:07.772Z,2.28
2023-03-05T14:23:34.665Z,3.35
2023-03-05T14:25:40.432Z,2.00
2023-03-05T14:27:44.242Z,1.80
2023-03-05T14:29:48.783Z,1.98
2023-03-05T14:31:56.228Z,2.25
2023-03-05T14:34:04.684Z,1.80
2023-03-05T14:36:10.887Z,1.33
2023-03-05T14:38:23.796Z,1.25
2023-03-05T14:40:31.745Z,1.60
2023-03-05T14:42:39.222Z,1.65
2023-03-05T14:44:43.970Z,0.93
2023-03-05T14:46:51.546Z,1.13
2023-03-05T14:48:56.712Z,1.10
2023-03-05T14:51:01.529Z,1.35
2023-03-05T14:53:09.196Z,1.10
2023-03-05T14:55:17.209Z,1.70
2023-03-05T14:57:24.568Z,1.40
2023-03-05T14:59:28.276Z,1.38
2023-03-05T15:01:32.109Z,1.17
2023-03-05T15:03:36.016Z,1.45
2023-03-05T15:05:41.010Z,1.10
2023-03-05T15:07:46.489Z,1.05
2023-03-05T15:09:50.248Z,2.40
2023-03-05T15:11:53.869Z,2.47
2023-03-05T15:13:57.575Z,1.92
2023-03-05T15:16:01.455Z,1.55
2023-03-05T15:18:05.149Z,1.27
2023-03-05T15:20:13.365Z,1.67
2023-03-05T15:22:19.102Z,1.08
2023-03-05T15:24:22.709Z,1.10
2023-03-05T15:26:26.379Z,1.13
2023-03-05T15:28:30.265Z,1.08
2023-03-05T15:30:35.081Z,1.15
2023-03-05T15:32:38.988Z,1.00
2023-03-05T15:34:42.552Z,0.93
2023-03-05T15:36:46.413Z,1.45
2023-03-05T15:38:51.949Z,1.02
2023-03-05T15:40:55.936Z,1.17
2023-03-05T15:43:01.103Z,1.10
2023-03-05T15:45:05.228Z,1.25
2023-03-05T15:47:09.155Z,1.15
2023-03-05T15:49:12.909Z,1.13
2023-03-05T15:51:16.559Z,1.42
2023-03-05T15:53:21.803Z,1.02
2023-03-05T15:55:27.652Z,2.00
2023-03-05T15:57:31.703Z,3.10
2023-03-05T15:59:35.159Z,5.07
2023-03-05T16:01:39.386Z,1.20
2023-03-05T16:03:43.504Z,2.38
2023-03-05T16:05:48.352Z,1.63
2023-03-05T16:07:54.233Z,1.77
2023-03-05T16:09:59.252Z,1.70
2023-03-05T16:12:05.733Z,1.10
2023-03-05T16:14:13.622Z,1.33
2023-03-05T16:16:18.354Z,2.10
2023-03-05T16:18:23.504Z,1.83
2023-03-05T16:20:27.612Z,1.55
2023-03-05T16:22:31.184Z,1.65
2023-03-05T16:24:35.441Z,1.42
2023-03-05T16:26:41.319Z,1.70
2023-03-05T16:28:46.920Z,1.63
2023-03-05T16:30:55.156Z,1.52
2023-03-05T16:33:00.134Z,1.80
2023-03-05T16:37:07.695Z,1.90
2023-03-05T16:39:11.456Z,2.10
2023-03-05T16:41:16.522Z,2.30
2023-03-05T16:45:24.786Z,2.03
2023-03-05T16:47:28.981Z,2.45
2023-03-05T16:49:33.352Z,2.13
2023-03-05T16:51:37.693Z,2.30
2023-03-05T16:53:42.869Z,2.20
2023-03-05T16:55:48.411Z,1.80
2023-03-05T16:57:52.229Z,2.53
2023-03-05T16:59:56.542Z,2.40
2023-03-05T17:02:02.108Z,1.80
2023-03-05T17:04:06.021Z,1.88
2023-03-05T17:06:11.984Z,2.28
2023-03-05T17:08:15.703Z,2.47
2023-03-05T17:10:19.875Z,2.08
2023-03-05T17:12:24.422Z,1.90
2023-03-05T17:14:28.597Z,1.92
2023-03-05T17:16:32.565Z,2.55
2023-03-05T17:18:38.225Z,1.98
2023-03-05T17:20:42.404Z,1.98
2023-03-05T17:22:46.327Z,2.90
2023-03-05T17:24:50.148Z,2.45
2023-03-05T17:26:54.178Z,2.75
2023-03-05T17:28:58.139Z,2.42
2023-03-05T17:31:05.062Z,2.55
2023-03-05T17:33:08.920Z,2.72
2023-03-05T17:35:19.387Z,2.20
2023-03-05T17:37:23.850Z,2.97
2023-03-05T17:39:27.490Z,2.50
2023-03-05T17:41:31.340Z,3.08
2023-03-05T17:43:35.262Z,12.10
2023-03-05T17:45:40.050Z,10.15
2023-03-05T17:47:44.504Z,3.15
2023-03-05T17:49:49.643Z,3.17
2023-03-05T17:53:59.323Z,2.95
2023-03-05T17:56:03.694Z,4.57
2023-03-05T17:58:08.146Z,2.67
2023-03-05T18:00:18.074Z,3.83
2023-03-05T18:02:22.629Z,5.03
2023-03-05T18:04:26.616Z,4.15
2023-03-05T18:06:31.067Z,7.45
2023-03-05T18:08:36.315Z,3.85
2023-03-05T18:10:40.103Z,4.53
2023-03-05T18:12:44.364Z,4.68
2023-03-05T18:14:48.398Z,5.40
2023-03-05T18:16:52.237Z,4.97
2023-03-05T18:18:56.936Z,6.05
2023-03-05T18:21:00.686Z,5.20
2023-03-05T18:23:05.818Z,5.57
2023-03-05T18:25:13.403Z,5.80
2023-03-05T18:27:18.343Z,5.97
2023-03-05T18:29:22.629Z,5.82
2023-03-05T18:31:26.637Z,5.78
2023-03-05T18:33:30.503Z,5.57
2023-03-05T18:35:34.031Z,5.32
2023-03-05T18:37:40.063Z,5.03
2023-03-05T18:39:44.369Z,5.10
2023-03-05T18:41:49.730Z,4.68
2023-03-05T18:43:54.709Z,4.53
2023-03-05T18:45:58.670Z,4.28
2023-03-05T18:48:02.573Z,5.20
2023-03-05T18:50:07.193Z,7.10
2023-03-05T18:52:13.932Z,6.43
2023-03-05T18:54:18.901Z,5.45
2023-03-05T18:56:23.457Z,5.18
2023-03-05T18:58:28.759Z,5.63
2023-03-05T19:00:33.921Z,4.72
2023-03-05T19:04:41.531Z,4.57
2023-03-05T19:06:45.303Z,4.75
2023-03-05T19:08:56.736Z,4.47
2023-03-05T19:11:00.779Z,3.97
2023-03-05T19:13:18.800Z,3.58
2023-03-05T19:15:24.892Z,4.32
2023-03-05T19:17:29.011Z,3.67
2023-03-05T19:19:32.525Z,3.92
2023-03-05T19:21:36.149Z,3.72
2023-03-05T19:23:40.313Z,3.65
2023-03-05T19:25:43.995Z,3.65
2023-03-05T19:27:47.421Z,3.50
2023-03-05T19:29:53.622Z,4.18
2023-03-05T19:31:58.915Z,3.72
2023-03-05T19:34:03.602Z,4.53
2023-03-05T19:36:10.306Z,3.92
2023-03-05T19:38:14.295Z,4.15
2023-03-05T19:40:18.353Z,3.90
2023-03-05T19:42:22.148Z,3.83
2023-03-05T19:44:28.059Z,3.78
2023-03-05T19:46:32.045Z,4.20
2023-03-05T19:48:38.307Z,3.72
2023-03-05T19:50:42.288Z,3.42
2023-03-05T19:52:46.469Z,3.17
2023-03-05T19:54:51.181Z,4.68
2023-03-05T19:56:56.251Z,4.53
2023-03-05T20:01:11.810Z,3.25
2023-03-05T20:03:15.667Z,3.38
2023-03-05T20:05:25.690Z,3.78
2023-03-05T20:07:29.594Z,9.88
2023-03-05T20:09:36.068Z,3.25
2023-03-05T20:11:40.916Z,6.47
2023-03-05T20:13:44.937Z,8.15
2023-03-05T20:15:48.447Z,14.48
2023-03-05T20:17:54.351Z,7.60
2023-03-05T20:19:59.239Z,7.68
2023-03-05T20:22:05.305Z,12.82
2023-03-05T20:24:11.932Z,7.65
2023-03-05T20:26:15.700Z,10.07
2023-03-05T20:28:26.160Z,3.97
2023-03-05T20:30:30.898Z,3.70
2023-03-05T20:32:34.936Z,11.85
2023-03-05T20:34:39.031Z,11.48
2023-03-05T20:36:44.167Z,16.70
2023-03-05T20:40:55.142Z,3.72
2023-03-05T20:42:59.472Z,3.55
2023-03-05T20:45:04.191Z,3.15
2023-03-05T20:47:23.874Z,4.15
2023-03-05T20:49:27.570Z,4.50
2023-03-05T20:51:34.305Z,3.50
2023-03-05T20:53:38.206Z,3.40
2023-03-05T20:55:44.649Z,4.18
2023-03-05T20:57:48.260Z,3.95
2023-03-05T20:59:51.913Z,3.25
2023-03-05T21:01:55.619Z,3.55
2023-03-05T21:03:59.220Z,3.25
2023-03-05T21:06:03.832Z,4.57
2023-03-05T21:08:07.737Z,3.92
2023-03-05T21:10:12.864Z,3.05
2023-03-05T21:12:18.681Z,3.95
2023-03-05T21:14:22.998Z,4.80
2023-03-05T21:16:29.180Z,3.80
2023-03-05T21:18:33.081Z,3.20
2023-03-05T21:20:36.956Z,2.97
2023-03-05T21:22:41.161Z,3.70
2023-03-05T21:24:55.921Z,3.40
2023-03-05T21:26:59.635Z,4.50
2023-03-05T21:29:05.141Z,5.05
2023-03-05T21:31:11.420Z,3.45
2023-03-05T21:33:18.233Z,4.07
2023-03-05T21:35:24.569Z,3.92
2023-03-05T21:37:29.337Z,3.97
2023-03-05T21:39:33.103Z,3.13
2023-03-05T21:41:36.927Z,3.20
2023-03-05T21:43:40.976Z,2.95
2023-03-05T21:45:47.854Z,3.40
2023-03-05T21:47:53.615Z,3.10
2023-03-05T21:49:58.051Z,4.05
2023-03-05T21:52:09.322Z,3.65
2023-03-05T21:54:13.100Z,4.28
2023-03-05T21:56:24.667Z,3.08
2023-03-05T21:58:28.352Z,3.30
2023-03-05T22:00:31.873Z,3.25
2023-03-05T22:02:37.543Z,10.40
2023-03-05T22:04:41.312Z,3.47
2023-03-05T22:06:45.411Z,3.92
2023-03-05T22:08:49.996Z,3.45
2023-03-05T22:10:54.600Z,4.32
2023-03-05T22:13:07.158Z,4.38
2023-03-05T22:15:12.357Z,4.80
2023-03-05T22:17:15.955Z,4.40
2023-03-05T22:19:21.142Z,4.38
2023-03-05T22:21:27.644Z,4.28
2023-03-05T22:23:34.451Z,4.32
2023-03-05T22:25:38.258Z,5.25
2023-03-05T22:27:42.378Z,5.22
2023-03-05T22:29:45.977Z,5.47
2023-03-05T22:31:49.888Z,5.35
2023-03-05T22:33:54.334Z,5.95
2023-03-05T22:36:00.218Z,5.22
2023-03-05T22:38:03.909Z,5.63
2023-03-05T22:40:08.865Z,4.30
2023-03-05T22:42:12.427Z,4.97
2023-03-05T22:44:16.068Z,4.68
2023-03-05T22:46:21.853Z,4.47
2023-03-05T22:48:25.568Z,3.70
2023-03-05T22:50:29.108Z,3.80
2023-03-05T22:52:34.162Z,3.75
2023-03-05T22:54:37.699Z,3.53
2023-03-05T22:56:41.396Z,3.55
2023-03-05T22:58:45.041Z,3.50
2023-03-05T23:00:49.015Z,3.53
2023-03-05T23:02:53.136Z,3.75
2023-03-05T23:04:57.925Z,2.65
2023-03-05T23:07:01.743Z,3.25
2023-03-05T23:09:06.946Z,2.50
2023-03-05T23:11:12.616Z,2.85
2023-03-05T23:13:16.379Z,2.90
2023-03-05T23:15:25.108Z,2.85
2023-03-05T23:17:28.832Z,2.70
2023-03-05T23:19:39.515Z,2.30
2023-03-05T23:21:43.266Z,2.80
2023-03-05T23:23:46.887Z,2.75
2023-03-05T23:25:53.405Z,2.70
2023-03-05T23:27:58.190Z,2.35
2023-03-05T23:30:12.828Z,3.05
2023-03-05T23:32:16.524Z,3.08
2023-03-05T23:34:20.145Z,3.40
2023-03-05T23:36:25.615Z,4.20
2023-03-05T23:38:30.865Z,3.72
2023-03-05T23:40:36.906Z,3.85
2023-03-05T23:42:43.386Z,3.42
2023-03-05T23:44:46.913Z,3.60
2023-03-05T23:46:50.529Z,3.80
2023-03-05T23:48:54.045Z,3.92
2023-03-05T23:50:57.666Z,4.53
2023-03-05T23:53:02.457Z,4.40
2023-03-05T23:55:07.021Z,4.65
2023-03-05T23:57:10.682Z,3.63
2023-03-05T23:59:15.672Z,4.35
